Terminal Aerodrome Forecast
Issued by NWS

Home | Current Version | Previous Version | Text Only | Print | Product List | Glossary On
Versions: 1 2 3 4 5 6 7 8 9 10 11 12 13 14 15 16 17 18 19 20 21
000
FTUS41 KBOX 251733
TAFBAF
TAF
KBAF 251733Z 2518/2618 05005KT 6SM -RA BR OVC008
     FM252000 04004KT 6SM BR VCSH OVC010
     FM260200 00000KT 1SM BR BKN008
     FM261200 29005KT P6SM BKN200
     FM261700 29007G17KT P6SM SCT140=

USA.gov is the U.S. government's official web portal to all federal, state and local government web resources and services.